ADDS METAR Data INFO
IDs: Format: Raw Decoded Include TAF

Data at: 2054 UTC 19 Jul 2018

KORL 192012Z 18007KT 10SM FEW100 SCT110 27/25 A2996 RMK AO2 LTG DSNT SW AND W RAE04 P0000 T02670250
KORL 191950Z 15007KT 4SM VCTS -RA BR FEW031 BKN095 OVC110 26/24 A2998 RMK AO2 LTG DSNT NE RAB39 TSE00 SLP155 P0002 T02610244
KORL 191949Z 16008KT 3SM VCTS -RA BR FEW026 BKN095 OVC110 26/24 A2998 RMK AO2 LTG DSNT NE RAB39 TSE00 P0002
KORL 191906Z 17009KT 10SM SCT047 BKN070 BKN110 27/24 A2998 RMK AO2 LTG DSNT NE-S TSE00 T02670244
KORL 191853Z 17008KT 10SM TS FEW038 SCT049 BKN070 27/25 A2998 RMK AO2 LTG DSNT NE-S RAE13 TSB30 SLP154 P0001 T02670250
KORL 191836Z 18014KT 10SM TS SCT037 BKN049 BKN075 27/26 A2999 RMK AO2 LTG DSNT ALQDS RAE13 TSB30 P0001 T02720256
KORL 191808Z VRB05KT 10SM VCTS -RA BKN038 BKN047 BKN110 29/26 A2997 RMK AO2 LTG DSNT ALQDS P0001 T02940256
KORL 191800Z 21006KT 1 1/4SM R07/1800VP6000FT VCTS -RA SCT038 BKN049 BKN070 29/25 A2997 RMK AO2 LTG DSNT ALQDS P0001 T02890250
KORL 191753Z 19009KT 1/2SM R07/1800VP6000FT +RA FG SCT025 SCT038 BKN050 28/26 A2998 RMK AO2 LTG DSNT ALQDS RAB45 SLP153 P0018 60018 T02830261 10328 20272 56009
KORL 191749Z 21009KT 1 1/2SM R07/2000VP6000FT RA FEW027 BKN044 BKN060 30/26 A2997 RMK AO2 LTG DSNT ALQDS RAB45 P0010
KORL 191653Z 20010KT 10SM SCT037 SCT050 BKN065 32/24 A2999 RMK AO2 LTG DSNT S SLP156 T03170244
KORL 191649Z 20012KT 10SM SCT037 BKN050 BKN060 31/24 A2999 RMK AO2 LTG DSNT S
KORL 191634Z 21009KT 10SM VCTS SCT035 SCT048 BKN060 32/23 A3000 RMK AO2 T03170233
KORL 191553Z 23010KT 10SM CLR 32/24 A3000 RMK AO2 SLP162 T03170244
KORL 191453Z 20010KT 10SM SCT029 SCT035 31/25 A3001 RMK AO2 SLP164 T03110250 51008
KORL 191421Z AUTO 21010KT 10SM SCT024 SCT031 30/24 A3001 RMK AO2 T03000244
KORL 191404Z AUTO 22010KT 10SM BKN022 31/25 A3001 RMK AO2 T03060250
KORL 191353Z 20009KT 10SM SCT022 30/25 A3000 RMK AO2 SLP162 T03000250
KORL 191253Z 22007KT 10SM CLR 29/26 A3000 RMK AO2 SLP161 T02890256
KORL 191153Z 21006KT 10SM CLR 27/25 A2999 RMK AO2 SLP156 70005 T02720250 10272 20261 51008
KORL 191053Z 20005KT 10SM CLR 26/25 A2998 RMK AO2 SLP154 T02610250
KORL 190953Z AUTO 20005KT 10SM CLR 26/26 A2997 RMK AO2 SLP152 T02610256
KORL 190853Z AUTO 19007KT 10SM CLR 26/25 A2996 RMK AO2 SLP148 T02610250 56012
KORL 190753Z AUTO 18006KT 10SM CLR 26/26 A2997 RMK AO2 SLP151 T02610256
KORL 190700Z AUTO 18007KT 10SM FEW002 26/25 A2998 RMK AO2 T02610250
KORL 190653Z AUTO 17008KT 10SM CLR 26/25 A2998 RMK AO2 SLP154 T02610250
KORL 190553Z AUTO 18007KT 10SM CLR 26/25 A3000 RMK AO2 SLP161 T02610250 10272 20261 58001
KORL 190453Z AUTO 19005KT 10SM CLR 27/25 A3001 RMK AO2 SLP164 T02670250 403220250
KORL 190353Z AUTO 19004KT 10SM CLR 27/25 A3001 RMK AO2 SLPNO T02670250
KORL 190253Z AUTO 21005KT 10SM CLR 27/24 A3000 RMK AO2 SLP161 T02670244 53008
KORL 190153Z 19005KT 10SM CLR 27/24 A2998 RMK AO2 SLP155 T02670244
KORL 190053Z 19005KT 10SM CLR 27/24 A2998 RMK AO2 SLP153 T02670244
KORL 182353Z 19007KT 10SM CLR 27/24 A2998 RMK AO2 SLPNO 60005 T02720244 10272 20250 56011
KORL 182253Z 21006KT 10SM CLR 27/24 A2998 RMK AO2 RAE17 SLP153 P0000 T02720244
KORL 182153Z 20004KT 10SM -RA SCT055 SCT070 BKN090 27/24 A2999 RMK AO2 RAB46 SLPNO P0001 T02670244
KORL 182053Z 21005KT 10SM SCT110 26/24 A3001 RMK AO2 RAE01B17E26 SLP164 P0000 60004 T02610239 58015 $
KORL 181953Z 30006KT 10SM -RA FEW070 BKN110 26/23 A3002 RMK AO2 RAE31B51 SLP169 P0003 T02560233 $
KORL 181922Z 28007KT 3SM -RA BR FEW044 SCT065 BKN080 26/24 A3003 RMK AO2 LTG DSNT N AND NE P0003 T02560239 $
KORL 181916Z 28007KT 1 3/4SM +RA BR FEW044 SCT060 BKN070 26/24 A3002 RMK AO2 LTG DSNT N AND NE P0003 T02560239 $
KORL 181853Z 26010KT 10SM -RA FEW044 SCT065 BKN080 27/24 A3004 RMK AO2 LTG DSNT W-NE RAB00E25B41 SLP175 P0001 T02670244
KORL 181812Z 21005KT 8SM -RA 26/24 A3004 RMK AO2 LTG DSNT ALQDS RAB00 P0001 T02560239
KORL 181753Z 23005KT 10SM VCTS BKN100 25/23 A3004 RMK AO2 LTG DSNT ALQDS TSE46 SLP176 T02500233 53003 $
KORL 181653Z COR 26020G30KT 6SM VCTS BKN040 28/22 A30043 RMK AO2 LTG DSNT ALQDS TSB53 SLP171 T03220228 $
KORL 181631Z 25008KT 10SM VCTS BKN035 32/23 A3002 RMK AO2 LTG DSNT SW-NW T03220228 $
KORL 181553Z A3004 RMK AO2 LTG DSNT SW AND W SLPNO $
KORL 181453Z 24010KT 10SM SCT035 31/24 A3004 RMK AO2 LTG DSNT W SLP175 T03060244 56004 $
KORL 181353Z COR 23009KT 10SM SCT035 30/24 A3005 RMK AO2 SLP177 T03000244 $
KORL 181253Z 23008KT 10SM CLR 29/24 A3005 RMK AO2 SLP177 T02890244
KORL 181153Z COR 22007KT 10SM CLR 27/24 A3005 RMK AO2 SLPNO 6//// 7//// $
KORL 181053Z 21005KT 10SM FEW120 26/24 A3004 RMK AO2 SLP173 T02610239 $
KORL 180953Z AUTO A3003 RMK AO2 SLPNO PWINO $